LZKZ/KSC METAR and TAF weather

Enter ICAO airport designator
Station Type Date Time Source
LZKZ METAR 2019/12/07 15:00 UTC NOAA

LZKZ 071500Z 16004KT 4000 BR OVC005 M02/M03 Q1016 NOSIG


Station Type Date Time Source
LZKZ Decoded METAR 2019/12/07 15:00 UTC NOAA

Kosice, Barca, Slovakia (LZKZ) 48-39-47N 021-14-28E
Dec 07, 2019 - 10:00 AM EST / 2019.12.07 1500 UTC
Wind: from the SSE (160 degrees) at 5 MPH (4 KT):0
Visibility: 2 mile(s):0
Sky conditions: overcast
Weather: mist
Temperature: 28 F (-2 C)
Windchill: 23 F (-5 C):1
Dew Point: 26 F (-3 C)
Relative Humidity: 92%
Pressure (altimeter): 30.00 in. Hg (1016 hPa)
ob: LZKZ 071500Z 16004KT 4000 BR OVC005 M02/M03 Q1016 NOSIG
cycle: 15

Station Type Date Time Source
LZKZ TAF 2019/12/07 12:48 UTC NOAA

TAF LZKZ 071100Z 0712/0812 23008KT 7000 OVC006 PROB40
TEMPO 0712/0715 BKN011
BECMG 0715/0717 VRB02KT 4000 BR BKN004
BECMG 0720/0722 0500 FZFG OVC002
TEMPO 0720/0810 0100 -FZDZ FZFG OVC001
BECMG 0810/0812 21010KT 3500 BR SCT004 BKN010

Example: see airport list